createdAt,value
2019-06-23T00:00:35.428Z,96637.65
2019-06-23T00:03:03.966Z,96642.67
2019-06-23T00:06:12.406Z,96646.80
2019-06-23T00:08:41.068Z,96646.05
2019-06-23T00:11:09.617Z,96651.25
2019-06-23T00:13:38.167Z,96652.33
2019-06-23T00:16:06.755Z,96645.05
2019-06-23T00:18:35.362Z,96651.02
2019-06-23T00:23:58.247Z,96642.56
2019-06-23T00:26:26.871Z,96645.05
2019-06-23T00:28:55.447Z,96645.42
2019-06-23T00:31:43.166Z,96645.13
2019-06-23T00:34:11.725Z,96645.27
2019-06-23T00:36:40.372Z,96644.75
2019-06-23T00:39:09.156Z,96652.00
2019-06-23T00:42:17.582Z,96657.98
2019-06-23T00:44:46.127Z,96661.83
2019-06-23T00:47:14.746Z,96660.98
2019-06-23T00:49:43.356Z,96658.50
2019-06-23T00:52:11.980Z,96664.05
2019-06-23T00:54:40.634Z,96663.53
2019-06-23T00:57:09.127Z,96663.77
2019-06-23T00:59:37.781Z,96664.86
2019-06-23T01:02:25.520Z,96667.05
2019-06-23T01:04:54.110Z,96666.05
2019-06-23T01:07:22.729Z,96664.42
2019-06-23T01:10:02.014Z,96661.74
2019-06-23T01:12:21.579Z,96663.13
2019-06-23T01:14:50.166Z,96670.14
2019-06-23T01:17:18.784Z,96665.15
2019-06-23T01:19:47.447Z,96667.44
2019-06-23T01:22:16.043Z,96671.80
2019-06-23T01:24:44.722Z,96668.50
2019-06-23T01:27:13.332Z,96672.23
2019-06-23T01:29:41.984Z,96670.61
2019-06-23T01:32:10.527Z,96667.55
2019-06-23T01:34:39.116Z,96667.48
2019-06-23T01:37:07.729Z,96678.35
2019-06-23T01:39:36.214Z,96676.64
2019-06-23T01:42:04.869Z,96681.18
2019-06-23T01:44:33.411Z,96685.41
2019-06-23T01:47:02.086Z,96675.41
2019-06-23T01:49:30.637Z,96678.27
2019-06-23T01:51:59.225Z,96686.20
2019-06-23T01:54:27.782Z,96686.94
2019-06-23T01:56:56.389Z,96688.00
2019-06-23T01:59:25.049Z,96688.52
2019-06-23T02:01:53.635Z,96688.38
2019-06-23T02:04:22.317Z,96687.25
2019-06-23T02:06:50.969Z,96684.36
2019-06-23T02:09:19.522Z,96685.75
2019-06-23T02:11:48.103Z,96686.91
2019-06-23T02:14:16.668Z,96689.02
2019-06-23T02:16:45.318Z,96688.03
2019-06-23T02:19:13.971Z,96683.70
2019-06-23T02:22:01.726Z,96690.83
2019-06-23T02:27:45.937Z,96694.16
2019-06-23T02:30:54.381Z,96689.61
2019-06-23T02:33:22.863Z,96690.45
2019-06-23T02:35:51.511Z,96694.17
2019-06-23T02:38:20.086Z,96693.31
2019-06-23T02:40:48.751Z,96697.82
2019-06-23T02:43:17.400Z,96694.81
2019-06-23T02:48:54.382Z,96695.97
2019-06-23T02:54:17.821Z,96698.57
2019-06-23T02:59:35.628Z,96708.56
2019-06-23T03:02:04.286Z,96707.26
2019-06-23T03:04:32.933Z,96706.55
2019-06-23T03:07:01.407Z,96703.60
2019-06-23T03:09:29.998Z,96702.97
2019-06-23T03:11:58.611Z,96700.76
2019-06-23T03:14:27.216Z,96704.14
2019-06-23T03:16:55.801Z,96707.24
2019-06-23T03:19:24.326Z,96708.25
2019-06-23T03:21:52.924Z,96710.10
2019-06-23T03:24:21.578Z,96711.89
2019-06-23T03:26:50.191Z,96708.97
2019-06-23T03:29:18.851Z,96705.44
2019-06-23T03:31:47.507Z,96711.72
2019-06-23T03:34:16.125Z,96705.92
2019-06-23T03:36:44.738Z,96713.30
2019-06-23T03:39:53.104Z,96708.95
2019-06-23T03:43:01.612Z,96713.78
2019-06-23T03:45:30.232Z,96719.76
2019-06-23T03:47:58.851Z,96719.47
2019-06-23T03:50:27.430Z,96723.13
2019-06-23T03:52:56.089Z,96723.84
2019-06-23T03:55:24.685Z,96727.84
2019-06-23T03:57:53.296Z,96728.67
2019-06-23T04:01:01.742Z,96731.73
2019-06-23T04:03:30.356Z,96734.98
2019-06-23T04:05:59.006Z,96734.56
2019-06-23T04:08:27.663Z,96732.98
2019-06-23T04:10:56.286Z,96739.02
2019-06-23T04:13:24.899Z,96737.16
2019-06-23T04:15:53.553Z,96745.91
2019-06-23T04:18:22.161Z,96743.50
2019-06-23T04:21:30.599Z,96750.87
2019-06-23T04:23:59.256Z,96755.89
2019-06-23T04:26:27.862Z,96757.66
2019-06-23T04:28:56.517Z,96760.67
2019-06-23T04:31:25.122Z,96762.30
2019-06-23T04:33:53.671Z,96761.64
2019-06-23T04:36:22.250Z,96761.38
2019-06-23T04:38:50.830Z,96761.47
2019-06-23T04:41:19.438Z,96761.93
2019-06-23T04:43:48.038Z,96758.11
2019-06-23T04:46:16.638Z,96757.50
2019-06-23T04:48:45.242Z,96758.55
2019-06-23T04:51:13.714Z,96754.22
2019-06-23T04:53:42.326Z,96762.58
2019-06-23T04:56:10.899Z,96761.97
2019-06-23T04:58:39.369Z,96765.81
2019-06-23T05:01:07.985Z,96766.54
2019-06-23T05:03:36.634Z,96760.88
2019-06-23T05:06:05.312Z,96767.78
2019-06-23T05:08:33.927Z,96774.06
2019-06-23T05:11:02.494Z,96776.83
2019-06-23T05:13:31.113Z,96777.25
2019-06-23T05:15:59.754Z,96786.13
2019-06-23T05:18:28.386Z,96779.78
2019-06-23T05:20:57.011Z,96776.41
2019-06-23T05:23:25.484Z,96775.14
2019-06-23T05:28:48.949Z,96785.06
2019-06-23T05:31:17.566Z,96788.41
2019-06-23T05:33:46.139Z,96785.45
2019-06-23T05:36:14.764Z,96785.81
2019-06-23T05:38:43.343Z,96792.32
2019-06-23T05:41:11.930Z,96798.83
2019-06-23T05:43:40.554Z,96793.78
2019-06-23T05:46:09.208Z,96798.26
2019-06-23T05:48:37.864Z,96801.66
2019-06-23T05:51:06.448Z,96803.19
2019-06-23T05:53:35.071Z,96805.04
2019-06-23T05:56:03.649Z,96797.93
2019-06-23T05:58:45.478Z,96796.66
2019-06-23T06:01:02.550Z,96797.80
2019-06-23T06:03:31.097Z,96799.08
2019-06-23T06:05:59.696Z,96798.08
2019-06-23T06:08:28.248Z,96802.67
2019-06-23T06:10:56.888Z,96806.41
2019-06-23T06:13:25.437Z,96804.94
2019-06-23T06:15:53.999Z,96802.98
2019-06-23T06:18:22.609Z,96805.91
2019-06-23T06:20:51.349Z,96813.42
2019-06-23T06:23:19.820Z,96810.64
2019-06-23T06:25:48.477Z,96806.80
2019-06-23T06:28:17.013Z,96804.94
2019-06-23T06:30:45.669Z,96807.59
2019-06-23T06:33:14.203Z,96804.38
2019-06-23T06:35:42.852Z,96800.32
2019-06-23T06:38:11.461Z,96805.28
2019-06-23T06:40:40.046Z,96806.48
2019-06-23T06:43:10.977Z,96804.09
2019-06-23T06:45:38.864Z,96807.20
2019-06-23T06:48:07.426Z,96810.06
2019-06-23T06:50:36.040Z,96813.10
2019-06-23T06:53:04.660Z,96809.09
2019-06-23T06:55:33.299Z,96809.84
2019-06-23T06:58:01.920Z,96807.30
2019-06-23T07:00:30.571Z,96803.49
2019-06-23T07:02:59.120Z,96801.08
2019-06-23T07:05:27.776Z,96803.73
2019-06-23T07:07:56.314Z,96811.83
2019-06-23T07:10:24.813Z,96814.20
2019-06-23T07:12:53.438Z,96818.13
2019-06-23T07:15:22.071Z,96815.83
2019-06-23T07:17:50.565Z,96816.18
2019-06-23T07:20:19.182Z,96822.60
2019-06-23T07:22:47.832Z,96826.08
2019-06-23T07:25:16.479Z,96821.98
2019-06-23T07:27:45.053Z,96827.34
2019-06-23T07:30:53.557Z,96827.34
2019-06-23T07:33:22.104Z,96823.63
2019-06-23T07:35:50.671Z,96829.75
2019-06-23T07:38:19.225Z,96823.41
2019-06-23T07:40:47.793Z,96827.81
2019-06-23T07:43:16.266Z,96821.50
2019-06-23T07:45:44.775Z,96820.45
2019-06-23T07:48:13.322Z,96821.88
2019-06-23T07:50:41.894Z,96826.92
2019-06-23T07:53:10.494Z,96823.48
2019-06-23T07:55:39.142Z,96820.11
2019-06-23T07:58:07.682Z,96822.25
2019-06-23T08:00:36.191Z,96820.94
2019-06-23T08:03:24.101Z,96807.34
2019-06-23T08:05:52.686Z,96807.34
2019-06-23T08:08:21.299Z,96809.07
2019-06-23T08:10:49.880Z,96808.83
2019-06-23T08:13:18.486Z,96809.94
2019-06-23T08:15:47.122Z,96809.16
2019-06-23T08:21:06.131Z,96815.66
2019-06-23T08:24:15.248Z,96811.39
2019-06-23T08:26:43.888Z,96810.03
2019-06-23T08:29:12.428Z,96802.48
2019-06-23T08:31:41.032Z,96808.27
2019-06-23T08:34:10.066Z,96809.13
2019-06-23T08:36:39.926Z,96815.37
2019-06-23T08:39:08.549Z,96816.23
2019-06-23T08:41:37.187Z,96816.69
2019-06-23T08:44:05.797Z,96819.50
2019-06-23T08:46:34.441Z,96824.30
2019-06-23T08:49:02.980Z,96823.89
2019-06-23T08:51:31.588Z,96824.28
2019-06-23T08:54:00.173Z,96828.84
2019-06-23T08:56:28.845Z,96830.94
2019-06-23T08:58:57.451Z,96832.66
2019-06-23T09:01:26.056Z,96832.39
2019-06-23T09:03:54.653Z,96841.20
2019-06-23T09:06:23.232Z,96844.52
2019-06-23T09:08:51.857Z,96840.98
2019-06-23T09:11:20.470Z,96846.28
2019-06-23T09:13:49.058Z,96842.17
2019-06-23T09:16:17.597Z,96851.17
2019-06-23T09:18:46.253Z,96848.62
2019-06-23T09:21:14.834Z,96849.03
2019-06-23T09:23:43.432Z,96854.99
2019-06-23T09:26:11.968Z,96852.63
2019-06-23T09:28:40.620Z,96856.92
2019-06-23T09:31:09.223Z,96856.70
2019-06-23T09:33:37.873Z,96851.03
2019-06-23T09:36:06.478Z,96852.08
2019-06-23T09:38:47.408Z,96857.00
2019-06-23T09:41:05.433Z,96853.81
2019-06-23T09:43:34.104Z,96851.56
2019-06-23T09:46:02.764Z,96852.42
2019-06-23T09:48:31.253Z,96853.95
2019-06-23T09:50:59.875Z,96856.85
2019-06-23T09:53:28.516Z,96866.84
2019-06-23T09:55:57.153Z,96863.39
2019-06-23T09:58:25.766Z,96866.98
2019-06-23T10:00:54.347Z,96872.59
2019-06-23T10:03:22.897Z,96865.44
2019-06-23T10:05:51.478Z,96869.88
2019-06-23T10:08:20.089Z,96867.67
2019-06-23T10:10:48.770Z,96870.19
2019-06-23T10:13:17.309Z,96868.98
2019-06-23T10:15:45.864Z,96868.28
2019-06-23T10:18:14.516Z,96872.67
2019-06-23T10:21:03.763Z,96874.39
2019-06-23T10:23:32.342Z,96879.43
2019-06-23T10:26:01.004Z,96881.52
2019-06-23T10:28:29.582Z,96885.34
2019-06-23T10:30:58.167Z,96890.08
2019-06-23T10:33:26.816Z,96893.12
2019-06-23T10:35:55.440Z,96894.30
2019-06-23T10:38:24.005Z,96890.35
2019-06-23T10:40:52.642Z,96894.68
2019-06-23T10:43:21.313Z,96890.11
2019-06-23T10:45:49.980Z,96891.80
2019-06-23T10:48:18.453Z,96891.14
2019-06-23T10:50:46.991Z,96893.47
2019-06-23T10:53:15.643Z,96889.66
2019-06-23T10:55:44.306Z,96890.01
2019-06-23T10:58:12.844Z,96886.27
2019-06-23T11:00:41.392Z,96887.86
2019-06-23T11:03:29.113Z,96890.72
2019-06-23T11:05:57.672Z,96892.72
2019-06-23T11:08:26.314Z,96890.91
2019-06-23T11:10:54.962Z,96884.17
2019-06-23T11:13:23.497Z,96888.42
2019-06-23T11:15:52.074Z,96888.56
2019-06-23T11:18:20.622Z,96887.64
2019-06-23T11:20:49.267Z,96892.92
2019-06-23T11:23:17.986Z,96883.11
2019-06-23T11:25:46.537Z,96882.58
2019-06-23T11:28:15.076Z,96888.09
2019-06-23T11:30:44.648Z,96874.73
2019-06-23T11:33:14.005Z,96878.94
2019-06-23T11:35:42.863Z,96874.06
2019-06-23T11:38:11.403Z,96881.59
2019-06-23T11:40:40.069Z,96879.42
2019-06-23T11:43:08.522Z,96877.90
2019-06-23T11:45:37.151Z,96883.73
2019-06-23T11:48:05.731Z,96883.66
2019-06-23T11:50:34.343Z,96889.76
2019-06-23T11:53:02.870Z,96882.30
2019-06-23T11:55:31.492Z,96886.42
2019-06-23T11:58:00.118Z,96878.73
2019-06-23T12:03:23.120Z,96881.23
2019-06-23T12:05:51.731Z,96877.02
2019-06-23T12:08:20.316Z,96876.59
2019-06-23T12:10:48.973Z,96877.88
2019-06-23T12:13:17.432Z,96873.23
2019-06-23T12:15:46.031Z,96870.53
2019-06-23T12:18:14.662Z,96871.05
2019-06-23T12:20:43.127Z,96867.34
2019-06-23T12:23:11.803Z,96866.38
2019-06-23T12:25:40.367Z,96862.91
2019-06-23T12:28:09.012Z,96857.15
2019-06-23T12:30:37.591Z,96859.86
2019-06-23T12:33:06.238Z,96851.33
2019-06-23T12:35:34.828Z,96851.38
2019-06-23T12:38:03.453Z,96849.45
2019-06-23T12:40:32.105Z,96855.03
2019-06-23T12:43:00.715Z,96849.83
2019-06-23T12:45:29.293Z,96845.64
2019-06-23T12:47:57.907Z,96857.88
2019-06-23T12:50:26.572Z,96854.79
2019-06-23T12:52:55.127Z,96854.55
2019-06-23T12:55:23.772Z,96858.04
2019-06-23T12:57:52.418Z,96861.03
2019-06-23T13:03:15.575Z,96860.14
2019-06-23T13:05:44.177Z,96849.50
2019-06-23T13:08:12.763Z,96854.48
2019-06-23T13:10:41.370Z,96853.58
2019-06-23T13:13:10.016Z,96853.36
2019-06-23T13:15:38.627Z,96853.59
2019-06-23T13:18:07.293Z,96856.85
2019-06-23T13:20:35.906Z,96856.08
2019-06-23T13:23:04.508Z,96856.22
2019-06-23T13:25:33.160Z,96861.05
2019-06-23T13:28:01.707Z,96858.41
2019-06-23T13:30:49.624Z,96860.31
2019-06-23T13:33:18.210Z,96857.95
2019-06-23T13:35:46.817Z,96851.30
2019-06-23T13:38:15.465Z,96850.04
2019-06-23T13:40:55.703Z,96846.22
2019-06-23T13:43:14.225Z,96853.75
2019-06-23T13:45:42.809Z,96854.05
2019-06-23T13:48:11.366Z,96847.90
2019-06-23T13:50:39.925Z,96855.41
2019-06-23T13:53:08.539Z,96846.42
2019-06-23T13:55:37.120Z,96851.19
2019-06-23T13:58:05.747Z,96858.76
2019-06-23T14:00:34.397Z,96852.05
2019-06-23T14:03:03.018Z,96850.95
2019-06-23T14:05:31.657Z,96858.31
2019-06-23T14:08:04.121Z,96858.59
2019-06-23T14:10:30.595Z,96853.66
2019-06-23T14:12:59.042Z,96852.58
2019-06-23T14:15:27.691Z,96855.11
2019-06-23T14:17:56.296Z,96860.11
2019-06-23T14:20:24.963Z,96856.31
2019-06-23T14:22:53.503Z,96850.42
2019-06-23T14:25:22.084Z,96846.33
2019-06-23T14:27:50.662Z,96849.50
2019-06-23T14:30:19.281Z,96853.33
2019-06-23T14:32:47.957Z,96857.77
2019-06-23T14:35:16.564Z,96850.69
2019-06-23T14:37:45.178Z,96844.23
2019-06-23T14:43:08.726Z,96841.94
2019-06-23T14:48:38.344Z,96842.94
2019-06-23T14:51:06.865Z,96835.86
2019-06-23T14:53:35.414Z,96831.95
2019-06-23T14:56:04.173Z,96824.09
2019-06-23T14:58:32.652Z,96826.31
2019-06-23T15:01:01.302Z,96825.23
2019-06-23T15:03:29.862Z,96819.70
2019-06-23T15:05:58.475Z,96824.63
2019-06-23T15:08:27.123Z,96826.60
2019-06-23T15:10:55.600Z,96821.01
2019-06-23T15:13:24.244Z,96814.08
2019-06-23T15:15:52.801Z,96810.73
2019-06-23T15:18:21.457Z,96811.53
2019-06-23T15:20:50.012Z,96813.96
2019-06-23T15:23:18.653Z,96811.92
2019-06-23T15:25:47.195Z,96810.72
2019-06-23T15:28:15.791Z,96809.08
2019-06-23T15:31:24.219Z,96808.05
2019-06-23T15:33:52.692Z,96811.32
2019-06-23T15:36:21.294Z,96809.38
2019-06-23T15:38:49.793Z,96825.28
2019-06-23T15:41:18.423Z,96826.67
2019-06-23T15:43:46.981Z,96822.59
2019-06-23T15:46:25.761Z,96821.34
2019-06-23T15:48:45.969Z,96818.64
2019-06-23T15:51:14.503Z,96811.38
2019-06-23T15:54:22.945Z,96816.09
2019-06-23T15:56:51.493Z,96807.28
2019-06-23T15:59:20.104Z,96809.33
2019-06-23T16:01:48.677Z,96805.33
2019-06-23T16:04:17.154Z,96802.43
2019-06-23T16:07:25.578Z,96797.31
2019-06-23T16:09:54.171Z,96800.66
2019-06-23T16:12:22.792Z,96804.44
2019-06-23T16:17:40.511Z,96803.80
2019-06-23T16:20:09.228Z,96810.33
2019-06-23T16:22:37.779Z,96800.89
2019-06-23T16:25:46.228Z,96803.38
2019-06-23T16:28:14.822Z,96803.88
2019-06-23T16:30:43.366Z,96803.73
2019-06-23T16:33:11.942Z,96797.23
2019-06-23T16:35:40.493Z,96803.58
2019-06-23T16:38:09.089Z,96797.83
2019-06-23T16:40:37.754Z,96789.34
2019-06-23T16:43:06.292Z,96794.75
2019-06-23T16:45:34.953Z,96796.19
2019-06-23T16:48:03.615Z,96797.52
2019-06-23T16:50:32.093Z,96798.80
2019-06-23T16:53:00.757Z,96799.33
2019-06-23T16:55:29.415Z,96801.98
2019-06-23T16:57:57.882Z,96796.58
2019-06-23T17:00:26.518Z,96786.42
2019-06-23T17:02:55.139Z,96786.98
2019-06-23T17:05:23.793Z,96799.58
2019-06-23T17:08:11.685Z,96807.95
2019-06-23T17:10:40.334Z,96813.48
2019-06-23T17:13:08.955Z,96816.53
2019-06-23T17:15:37.589Z,96817.38
2019-06-23T17:18:06.128Z,96819.10
2019-06-23T17:20:34.786Z,96826.47
2019-06-23T17:23:03.406Z,96830.73
2019-06-23T17:25:31.953Z,96835.16
2019-06-23T17:28:00.539Z,96832.06
2019-06-23T17:31:08.969Z,96837.95
2019-06-23T17:33:40.640Z,96837.34
2019-06-23T17:36:07.826Z,96831.05
2019-06-23T17:38:36.469Z,96829.08
2019-06-23T17:41:04.998Z,96834.92
2019-06-23T17:43:33.587Z,96836.38
2019-06-23T17:46:02.247Z,96836.91
2019-06-23T17:48:30.846Z,96833.95
2019-06-23T17:50:59.514Z,96839.13
2019-06-23T17:53:28.041Z,96836.70
2019-06-23T17:55:56.656Z,96832.91
2019-06-23T17:58:25.266Z,96835.34
2019-06-23T18:00:53.782Z,96835.11
2019-06-23T18:03:22.444Z,96832.70
2019-06-23T18:05:50.908Z,96833.01
2019-06-23T18:08:19.499Z,96833.01
2019-06-23T18:10:48.107Z,96833.81
2019-06-23T18:13:21.594Z,96838.63
2019-06-23T18:15:47.277Z,96837.73
2019-06-23T18:18:15.822Z,96833.91
2019-06-23T18:20:44.288Z,96840.35
2019-06-23T18:23:12.954Z,96837.80
2019-06-23T18:25:41.569Z,96838.63
2019-06-23T18:28:10.213Z,96838.02
2019-06-23T18:30:38.786Z,96825.63
2019-06-23T18:33:07.437Z,96840.72
2019-06-23T18:35:36.076Z,96837.19
2019-06-23T18:38:04.743Z,96838.78
2019-06-23T18:40:33.361Z,96832.53
2019-06-23T18:43:01.938Z,96832.25
2019-06-23T18:45:30.475Z,96836.06
2019-06-23T18:47:59.246Z,96837.48
2019-06-23T18:50:27.822Z,96834.94
2019-06-23T18:52:56.475Z,96830.92
2019-06-23T18:55:25.103Z,96820.22
2019-06-23T18:58:05.756Z,96824.05
2019-06-23T19:00:24.197Z,96837.70
2019-06-23T19:02:52.751Z,96827.20
2019-06-23T19:05:21.516Z,96837.69
2019-06-23T19:07:50.063Z,96827.17
2019-06-23T19:10:58.504Z,96828.67
2019-06-23T19:13:27.155Z,96835.74
2019-06-23T19:15:55.827Z,96843.64
2019-06-23T19:18:24.516Z,96842.09
2019-06-23T19:20:53.049Z,96842.94
2019-06-23T19:23:21.698Z,96849.84
2019-06-23T19:25:50.243Z,96849.45
2019-06-23T19:28:18.890Z,96849.03
2019-06-23T19:30:47.618Z,96848.50
2019-06-23T19:36:05.411Z,96862.20
2019-06-23T19:38:33.947Z,96867.12
2019-06-23T19:41:02.672Z,96875.22
2019-06-23T19:43:31.327Z,96868.00
2019-06-23T19:45:59.938Z,96876.94
2019-06-23T19:48:28.448Z,96881.53
2019-06-23T19:50:56.989Z,96874.20
2019-06-23T19:53:25.702Z,96883.28
2019-06-23T19:56:01.443Z,96886.02
2019-06-23T19:58:30.050Z,96885.88
2019-06-23T20:00:58.585Z,96892.54
2019-06-23T20:03:27.258Z,96896.47
2019-06-23T20:06:15.124Z,96897.29
2019-06-23T20:08:43.689Z,96901.16
2019-06-23T20:11:12.361Z,96896.71
2019-06-23T20:13:40.907Z,96897.56
2019-06-23T20:16:09.516Z,96899.91
2019-06-23T20:18:57.642Z,96898.80
2019-06-23T20:21:26.251Z,96905.25
2019-06-23T20:23:54.820Z,96904.00
2019-06-23T20:26:23.454Z,96907.71
2019-06-23T20:28:52.105Z,96909.16
2019-06-23T20:31:20.643Z,96912.09
2019-06-23T20:33:49.282Z,96909.86
2019-06-23T20:36:17.992Z,96907.45
2019-06-23T20:38:46.508Z,96915.70
2019-06-23T20:41:14.990Z,96912.03
2019-06-23T20:43:43.626Z,96911.67
2019-06-23T20:46:12.182Z,96909.05
2019-06-23T20:48:40.827Z,96909.05
2019-06-23T20:51:09.439Z,96913.55
2019-06-23T20:53:38.086Z,96905.86
2019-06-23T20:56:06.690Z,96903.95
2019-06-23T20:58:46.925Z,96904.33
2019-06-23T21:01:15.555Z,96912.45
2019-06-23T21:03:44.114Z,96908.03
2019-06-23T21:06:22.542Z,96912.48
2019-06-23T21:08:43.017Z,96911.60
2019-06-23T21:11:11.516Z,96914.72
2019-06-23T21:13:40.010Z,96918.95
2019-06-23T21:16:08.596Z,96920.96
2019-06-23T21:18:37.168Z,96921.34
2019-06-23T21:21:05.765Z,96928.67
2019-06-23T21:23:34.366Z,96923.47
2019-06-23T21:26:03.030Z,96932.73
2019-06-23T21:28:31.571Z,96934.63
2019-06-23T21:31:00.149Z,96938.55
2019-06-23T21:33:28.683Z,96937.60
2019-06-23T21:35:57.268Z,96939.80
2019-06-23T21:38:25.777Z,96941.38
2019-06-23T21:40:54.521Z,96946.78
2019-06-23T21:43:22.994Z,96944.77
2019-06-23T21:45:51.558Z,96943.09
2019-06-23T21:48:20.140Z,96946.68
2019-06-23T21:50:48.678Z,96945.78
2019-06-23T21:53:17.271Z,96947.36
2019-06-23T21:55:45.876Z,96946.77
2019-06-23T21:58:14.459Z,96953.76
2019-06-23T22:01:22.885Z,96957.23
2019-06-23T22:03:51.490Z,96962.16
2019-06-23T22:06:20.144Z,96959.80
2019-06-23T22:08:48.793Z,96963.59
2019-06-23T22:11:17.323Z,96958.37
2019-06-23T22:13:45.981Z,96961.98
2019-06-23T22:16:14.565Z,96962.45
2019-06-23T22:18:43.088Z,96955.08
2019-06-23T22:21:11.619Z,96957.28
2019-06-23T22:23:40.275Z,96953.92
2019-06-23T22:26:08.884Z,96956.86
2019-06-23T22:28:37.462Z,96947.31
2019-06-23T22:31:06.092Z,96952.77
2019-06-23T22:33:34.683Z,96950.93
2019-06-23T22:36:03.284Z,96953.16
2019-06-23T22:38:31.940Z,96957.08
2019-06-23T22:41:00.411Z,96956.17
2019-06-23T22:43:29.350Z,96962.17
2019-06-23T22:45:59.191Z,96964.06
2019-06-23T22:48:27.835Z,96969.14
2019-06-23T22:50:56.384Z,96973.53
2019-06-23T22:53:25.025Z,96973.76
2019-06-23T22:55:53.519Z,96981.83
2019-06-23T22:58:22.090Z,96979.89
2019-06-23T23:00:50.795Z,96983.64
2019-06-23T23:03:19.432Z,96979.73
2019-06-23T23:05:48.051Z,96981.55
2019-06-23T23:08:16.702Z,96989.22
2019-06-23T23:10:45.234Z,96988.14
2019-06-23T23:13:13.747Z,96989.50
2019-06-23T23:15:42.326Z,96987.80
2019-06-23T23:18:10.791Z,96992.69
2019-06-23T23:23:34.290Z,96990.97
2019-06-23T23:26:02.887Z,96995.68
2019-06-23T23:28:31.468Z,96995.12
2019-06-23T23:31:00.123Z,96998.23
2019-06-23T23:33:28.614Z,96996.08
2019-06-23T23:36:16.502Z,96999.47
2019-06-23T23:38:45.084Z,97006.50
2019-06-23T23:41:13.685Z,97004.47
2019-06-23T23:43:42.256Z,97010.42
2019-06-23T23:46:19.603Z,97012.92
2019-06-23T23:48:41.169Z,97009.69
2019-06-23T23:51:28.976Z,97009.11
2019-06-23T23:53:57.630Z,97005.72
2019-06-23T23:56:26.298Z,97005.92
2019-06-23T23:58:54.748Z,97010.91
